Time;durP1;ratioP1;P1;durP2;ratioP2;P2;SDS_P1;SDS_P2;PMS_P1;PMS_P2;Temp;Humidity;BMP_temperature;BMP_pressure;BME280_temperature;BME280_humidity;BME280_pressure;Samples;Min_cycle;Max_cycle;Signal;HPM_P1;HPM_P2
2021/12/03 00:01:20;;;;;;;8.33;6.47;;;;;;;;;;5045230;28;20227;-78
2021/12/03 00:03:50;;;;;;;8.87;6.20;;;;;;;;;;5031947;28;20577;-78
2021/12/03 00:06:19;;;;;;;6.50;5.73;;;;;;;;;;5032279;28;20230;-78
2021/12/03 00:08:46;;;;;;;6.03;5.40;;;;;;;;;;5035704;28;20724;-78
2021/12/03 00:11:14;;;;;;;6.33;5.73;;;;;;;;;;5035060;28;20238;-78
2021/12/03 00:13:41;;;;;;;6.17;5.57;;;;;;;;;;5035664;28;20252;-78
2021/12/03 00:16:08;;;;;;;7.13;5.53;;;;;;;;;;5034974;28;20261;-78
2021/12/03 00:18:35;;;;;;;6.40;5.10;;;;;;;;;;5035598;28;20242;-78
2021/12/03 00:21:04;;;;;;;6.40;5.33;;;;;;;;;;5035012;28;20238;-78
2021/12/03 00:23:33;;;;;;;6.77;5.03;;;;;;;;;;5035750;28;20317;-78
2021/12/03 00:26:00;;;;;;;5.17;4.73;;;;;;;;;;5034781;28;20230;-78
2021/12/03 00:28:28;;;;;;;6.67;5.20;;;;;;;;;;5035584;28;20226;-78
2021/12/03 00:30:55;;;;;;;9.77;5.70;;;;;;;;;;5035132;28;20238;-78
2021/12/03 00:33:22;;;;;;;6.10;5.50;;;;;;;;;;5035458;28;20245;-78
2021/12/03 00:35:51;;;;;;;8.13;5.90;;;;;;;;;;5034692;28;20260;-78
2021/12/03 00:38:18;;;;;;;6.50;5.80;;;;;;;;;;5035303;28;20227;-78
2021/12/03 00:40:47;;;;;;;5.87;5.30;;;;;;;;;;5034723;28;20714;-78
2021/12/03 00:43:14;;;;;;;6.43;5.57;;;;;;;;;;5034920;28;20233;-78
2021/12/03 00:45:43;;;;;;;6.00;5.40;;;;;;;;;;5034766;28;20608;-78
2021/12/03 00:48:10;;;;;;;6.33;5.70;;;;;;;;;;5035043;28;20231;-79
2021/12/03 00:50:37;;;;;;;5.80;5.20;;;;;;;;;;5034864;28;20235;-78
2021/12/03 00:53:04;;;;;;;6.77;5.57;;;;;;;;;;5035251;28;20572;-78
2021/12/03 00:55:32;;;;;;;6.50;5.57;;;;;;;;;;5034805;28;20237;-78
2021/12/03 00:58:01;;;;;;;6.20;5.20;;;;;;;;;;5035048;28;20229;-78
2021/12/03 01:00:30;;;;;;;6.03;5.43;;;;;;;;;;5034518;28;20256;-78
2021/12/03 01:02:57;;;;;;;5.87;5.27;;;;;;;;;;5054286;28;20210;-78
2021/12/03 01:05:25;;;;;;;5.77;5.17;;;;;;;;;;5053901;28;20230;-78
2021/12/03 01:07:52;;;;;;;7.40;5.30;;;;;;;;;;5054967;28;20225;-78
2021/12/03 01:10:19;;;;;;;6.50;5.27;;;;;;;;;;5054132;28;20242;-78
2021/12/03 01:12:47;;;;;;;6.47;4.77;;;;;;;;;;5054830;28;20235;-78
2021/12/03 01:15:18;;;;;;;5.33;4.83;;;;;;;;;;5053787;28;20252;-78
2021/12/03 01:17:45;;;;;;;7.47;5.67;;;;;;;;;;5054218;28;20240;-78
2021/12/03 01:20:13;;;;;;;5.60;5.10;;;;;;;;;;5054179;28;20240;-78
2021/12/03 01:22:41;;;;;;;6.80;5.20;;;;;;;;;;5054546;28;20655;-78
2021/12/03 01:25:09;;;;;;;6.27;5.23;;;;;;;;;;5053925;28;20261;-78
2021/12/03 01:27:36;;;;;;;9.57;5.57;;;;;;;;;;5054315;28;20773;-78
2021/12/03 01:30:04;;;;;;;6.73;4.93;;;;;;;;;;5053710;28;20233;-78
2021/12/03 01:32:33;;;;;;;5.77;5.17;;;;;;;;;;5054022;28;20209;-78
2021/12/03 01:35:00;;;;;;;5.30;4.70;;;;;;;;;;5053505;28;20727;-78
2021/12/03 01:37:27;;;;;;;7.93;5.33;;;;;;;;;;5054592;28;20213;-79
2021/12/03 01:39:54;;;;;;;6.50;5.50;;;;;;;;;;5053448;28;20237;-78
2021/12/03 01:42:21;;;;;;;5.80;5.23;;;;;;;;;;5054225;28;20265;-78
2021/12/03 01:44:48;;;;;;;6.23;5.63;;;;;;;;;;5053724;28;20619;-78
2021/12/03 01:47:15;;;;;;;6.07;5.47;;;;;;;;;;5054236;28;20234;-78
2021/12/03 01:49:44;;;;;;;6.60;5.90;;;;;;;;;;5055142;28;20233;-78
2021/12/03 01:52:11;;;;;;;8.57;5.73;;;;;;;;;;5055465;28;20217;-78
2021/12/03 01:54:38;;;;;;;7.00;5.53;;;;;;;;;;5054536;28;20240;-78
2021/12/03 01:57:05;;;;;;;8.57;5.83;;;;;;;;;;5055578;28;20292;-78
2021/12/03 01:59:32;;;;;;;7.13;5.83;;;;;;;;;;5054334;28;20234;-78
2021/12/03 02:02:00;;;;;;;9.00;6.20;;;;;;;;;;5040201;28;20697;-78
2021/12/03 02:04:27;;;;;;;6.60;5.60;;;;;;;;;;5043810;28;20233;-79
2021/12/03 02:06:55;;;;;;;9.20;7.07;;;;;;;;;;5043507;28;20721;-79
2021/12/03 02:09:22;;;;;;;10.47;7.57;;;;;;;;;;5034148;28;20240;-78
2021/12/03 02:11:50;;;;;;;9.27;6.47;;;;;;;;;;5034706;28;20210;-78
2021/12/03 02:14:17;;;;;;;7.67;6.50;;;;;;;;;;5051503;28;20208;-78
2021/12/03 02:16:45;;;;;;;8.27;6.83;;;;;;;;;;5053591;28;20206;-78
2021/12/03 02:19:12;;;;;;;7.83;6.43;;;;;;;;;;5052391;28;20604;-78
2021/12/03 02:21:41;;;;;;;8.97;6.67;;;;;;;;;;5053351;28;20214;-78
2021/12/03 02:24:08;;;;;;;8.27;7.10;;;;;;;;;;5052890;28;20202;-78
2021/12/03 02:26:36;;;;;;;7.93;5.57;;;;;;;;;;5034944;28;20581;-78
2021/12/03 02:29:03;;;;;;;8.43;6.63;;;;;;;;;;5032404;28;20230;-78
2021/12/03 02:31:30;;;;;;;7.87;6.20;;;;;;;;;;5032380;28;20240;-78
2021/12/03 02:33:57;;;;;;;7.17;6.23;;;;;;;;;;5032916;28;20702;-78
2021/12/03 02:36:24;;;;;;;9.73;6.43;;;;;;;;;;5032531;28;20244;-78
2021/12/03 02:38:53;;;;;;;9.70;6.60;;;;;;;;;;5033139;28;20229;-78
2021/12/03 02:41:20;;;;;;;8.27;6.40;;;;;;;;;;5032533;28;20710;-78
2021/12/03 02:43:47;;;;;;;6.70;5.93;;;;;;;;;;5032720;28;20218;-78
2021/12/03 02:46:14;;;;;;;9.17;6.70;;;;;;;;;;5032331;28;20238;-78
2021/12/03 02:48:41;;;;;;;8.63;6.60;;;;;;;;;;5032821;28;20241;-78
2021/12/03 02:51:10;;;;;;;9.70;6.17;;;;;;;;;;5032325;28;20237;-78
2021/12/03 02:53:37;;;;;;;9.10;5.93;;;;;;;;;;5032876;28;20213;-78
2021/12/03 02:56:06;;;;;;;9.10;6.53;;;;;;;;;;5032153;28;20245;-78
2021/12/03 02:58:34;;;;;;;7.90;6.70;;;;;;;;;;5032682;28;20229;-78
2021/12/03 03:01:01;;;;;;;9.20;6.43;;;;;;;;;;5035791;28;20225;-78
2021/12/03 03:03:28;;;;;;;13.40;7.40;;;;;;;;;;5052673;28;20209;-78
2021/12/03 03:05:55;;;;;;;8.40;6.53;;;;;;;;;;5051863;28;20261;-78
2021/12/03 03:08:22;;;;;;;7.07;6.33;;;;;;;;;;5052416;28;20696;-78
2021/12/03 03:10:50;;;;;;;8.63;6.83;;;;;;;;;;5052056;28;20260;-78
2021/12/03 03:13:19;;;;;;;9.20;7.37;;;;;;;;;;5052768;28;20255;-78
2021/12/03 03:15:46;;;;;;;8.63;7.30;;;;;;;;;;5051764;28;20248;-78
2021/12/03 03:18:14;;;;;;;10.10;7.30;;;;;;;;;;5052416;28;20227;-78
2021/12/03 03:20:42;;;;;;;10.53;7.67;;;;;;;;;;5051996;28;20256;-79
2021/12/03 03:23:09;;;;;;;10.83;8.40;;;;;;;;;;5052164;28;20212;-79
2021/12/03 03:25:37;;;;;;;8.60;7.70;;;;;;;;;;5051781;28;20240;-79
2021/12/03 03:28:04;;;;;;;11.03;8.50;;;;;;;;;;5051849;28;20654;-79
2021/12/03 03:30:33;;;;;;;9.83;8.00;;;;;;;;;;5051760;28;20241;-79
2021/12/03 03:33:00;;;;;;;10.87;8.03;;;;;;;;;;5052041;28;20581;-79
2021/12/03 03:35:27;;;;;;;11.63;7.80;;;;;;;;;;5051420;28;20241;-79
2021/12/03 03:37:55;;;;;;;14.30;9.60;;;;;;;;;;5052218;28;20228;-79
2021/12/03 03:40:22;;;;;;;13.83;9.40;;;;;;;;;;5051330;28;20245;-79
2021/12/03 03:42:49;;;;;;;11.73;8.50;;;;;;;;;;5052350;28;20211;-79
2021/12/03 03:45:18;;;;;;;10.27;8.27;;;;;;;;;;5051722;28;20251;-79
2021/12/03 03:47:47;;;;;;;12.83;9.30;;;;;;;;;;5052144;28;20229;-79
2021/12/03 03:50:15;;;;;;;12.80;9.07;;;;;;;;;;5061240;28;20245;-78
2021/12/03 03:52:42;;;;;;;12.67;9.30;;;;;;;;;;5076772;28;20189;-79
2021/12/03 03:55:10;;;;;;;11.77;9.60;;;;;;;;;;5059466;28;20246;-79
2021/12/03 03:57:38;;;;;;;14.73;9.80;;;;;;;;;;5055068;28;20235;-79
2021/12/03 04:00:06;;;;;;;13.17;10.40;;;;;;;;;;5054209;28;20263;-78
2021/12/03 04:02:33;;;;;;;13.33;10.37;;;;;;;;;;5053718;28;20211;-79
2021/12/03 04:05:01;;;;;;;15.83;9.87;;;;;;;;;;5052563;28;20245;-79
2021/12/03 04:07:28;;;;;;;14.97;11.03;;;;;;;;;;5053262;28;20338;-79
2021/12/03 04:09:55;;;;;;;12.30;9.90;;;;;;;;;;5052592;28;20691;-79
2021/12/03 04:12:22;;;;;;;16.77;10.93;;;;;;;;;;5053308;28;20210;-79
2021/12/03 04:14:49;;;;;;;14.33;10.97;;;;;;;;;;5052025;28;20245;-79
2021/12/03 04:17:17;;;;;;;15.37;11.03;;;;;;;;;;5052826;28;20208;-79
2021/12/03 04:19:44;;;;;;;13.53;10.17;;;;;;;;;;5052736;28;20231;-79
2021/12/03 04:22:14;;;;;;;16.97;11.20;;;;;;;;;;5052806;28;20664;-79
2021/12/03 04:24:42;;;;;;;19.87;11.60;;;;;;;;;;5052030;28;20235;-79
2021/12/03 04:27:09;;;;;;;17.87;12.37;;;;;;;;;;5052801;28;20214;-79
2021/12/03 04:29:36;;;;;;;18.87;12.17;;;;;;;;;;5053661;28;20605;-78
2021/12/03 04:32:04;;;;;;;18.60;12.73;;;;;;;;;;5053348;28;20599;-79
2021/12/03 04:34:31;;;;;;;19.60;12.13;;;;;;;;;;5053146;28;20230;-79
2021/12/03 04:36:58;;;;;;;17.23;10.70;;;;;;;;;;5053537;28;20205;-79
2021/12/03 04:39:26;;;;;;;14.83;9.03;;;;;;;;;;5053024;28;20242;-79
2021/12/03 04:41:53;;;;;;;13.93;9.83;;;;;;;;;;5053940;28;20209;-79
2021/12/03 04:44:20;;;;;;;15.63;10.03;;;;;;;;;;5053243;28;20208;-79
2021/12/03 04:46:47;;;;;;;15.93;9.23;;;;;;;;;;5053643;28;20215;-79
2021/12/03 04:49:14;;;;;;;15.17;9.47;;;;;;;;;;5052641;28;20727;-79
2021/12/03 04:51:42;;;;;;;18.97;10.67;;;;;;;;;;5052988;28;20215;-79
2021/12/03 04:54:09;;;;;;;11.20;7.83;;;;;;;;;;5054351;28;20211;-79
2021/12/03 04:56:37;;;;;;;15.40;9.23;;;;;;;;;;5055580;28;20210;-79
2021/12/03 04:59:04;;;;;;;6.90;6.13;;;;;;;;;;5054724;28;20228;-79
2021/12/03 05:01:31;;;;;;;11.57;8.00;;;;;;;;;;5058363;28;20191;-79
2021/12/03 05:03:58;;;;;;;10.37;8.10;;;;;;;;;;5056853;28;20214;-79
2021/12/03 05:06:41;;;;;;;10.27;7.40;;;;;;;;;;5053989;28;20715;-79
2021/12/03 05:09:08;;;;;;;9.87;7.23;;;;;;;;;;5054461;28;20230;-78
2021/12/03 05:11:35;;;;;;;13.10;8.03;;;;;;;;;;5054647;28;20218;-79
2021/12/03 05:14:04;;;;;;;9.53;7.40;;;;;;;;;;5053759;28;20216;-79
2021/12/03 05:16:31;;;;;;;8.83;6.13;;;;;;;;;;5054452;28;20285;-78
2021/12/03 05:18:58;;;;;;;9.30;7.13;;;;;;;;;;5057184;28;20228;-79
2021/12/03 05:21:25;;;;;;;8.50;6.37;;;;;;;;;;5058520;28;20242;-79
2021/12/03 05:23:52;;;;;;;10.77;6.77;;;;;;;;;;5058959;28;20215;-79
2021/12/03 05:26:19;;;;;;;10.63;6.60;;;;;;;;;;5057962;28;20284;-79
2021/12/03 05:28:46;;;;;;;9.87;7.50;;;;;;;;;;5061252;28;20235;-80
2021/12/03 05:31:15;;;;;;;8.50;6.57;;;;;;;;;;5058897;28;20771;-79
2021/12/03 05:33:42;;;;;;;9.17;6.90;;;;;;;;;;5059386;28;20253;-79
2021/12/03 05:36:09;;;;;;;9.33;6.47;;;;;;;;;;5058326;28;20235;-79
2021/12/03 05:38:38;;;;;;;14.03;8.07;;;;;;;;;;5058684;28;20357;-80
2021/12/03 05:41:05;;;;;;;12.87;8.73;;;;;;;;;;5058099;28;20676;-80
2021/12/03 05:43:32;;;;;;;11.10;8.47;;;;;;;;;;5059019;28;20204;-80
2021/12/03 05:45:59;;;;;;;13.13;8.13;;;;;;;;;;5057430;28;20247;-79
2021/12/03 05:48:27;;;;;;;11.13;7.17;;;;;;;;;;5057935;28;20252;-79
2021/12/03 05:50:54;;;;;;;81.77;32.20;;;;;;;;;;5057147;28;20714;-80
2021/12/03 05:53:21;;;;;;;49.53;20.90;;;;;;;;;;5058575;28;20211;-80
2021/12/03 05:55:48;;;;;;;40.83;20.57;;;;;;;;;;5057881;28;20245;-79
2021/12/03 05:58:17;;;;;;;11.23;6.40;;;;;;;;;;5057793;28;20861;-79
2021/12/03 06:00:44;;;;;;;12.17;7.50;;;;;;;;;;5057480;28;20306;-80
2021/12/03 06:03:11;;;;;;;8.37;7.17;;;;;;;;;;5057690;28;20222;-79
2021/12/03 06:05:40;;;;;;;7.80;6.60;;;;;;;;;;5056966;28;20262;-79
2021/12/03 06:08:07;;;;;;;12.70;6.80;;;;;;;;;;5056600;28;20635;-79
2021/12/03 06:10:35;;;;;;;11.60;7.97;;;;;;;;;;5053210;28;20241;-78
2021/12/03 06:13:02;;;;;;;11.47;7.87;;;;;;;;;;5053520;28;20240;-77
2021/12/03 06:15:30;;;;;;;8.93;6.60;;;;;;;;;;5052679;28;20238;-77
2021/12/03 06:17:57;;;;;;;11.83;7.10;;;;;;;;;;5053174;28;20234;-78
2021/12/03 06:20:25;;;;;;;11.27;8.17;;;;;;;;;;5052577;28;20331;-78
2021/12/03 06:22:53;;;;;;;9.53;7.63;;;;;;;;;;5053421;28;20211;-78
2021/12/03 06:25:21;;;;;;;8.57;7.20;;;;;;;;;;5052569;28;20240;-78
2021/12/03 06:27:48;;;;;;;10.63;7.67;;;;;;;;;;5052877;28;20721;-78
2021/12/03 06:30:16;;;;;;;11.10;8.03;;;;;;;;;;5052195;28;20232;-78
2021/12/03 06:32:43;;;;;;;12.23;7.43;;;;;;;;;;5052746;28;20208;-77
2021/12/03 06:35:11;;;;;;;8.63;7.37;;;;;;;;;;5051737;28;20235;-77
2021/12/03 06:37:38;;;;;;;10.57;8.53;;;;;;;;;;5052695;28;20593;-78
2021/12/03 06:40:08;;;;;;;8.60;7.13;;;;;;;;;;5052826;28;20293;-77
2021/12/03 06:42:35;;;;;;;12.23;7.27;;;;;;;;;;5052791;28;20216;-77
2021/12/03 06:45:05;;;;;;;11.03;7.73;;;;;;;;;;5052300;28;20232;-77
2021/12/03 06:47:32;;;;;;;13.93;7.80;;;;;;;;;;5055605;28;20725;-77
2021/12/03 06:49:59;;;;;;;12.77;8.00;;;;;;;;;;5052321;28;20319;-77
2021/12/03 06:52:26;;;;;;;14.33;8.73;;;;;;;;;;5052540;28;20637;-77
2021/12/03 06:54:55;;;;;;;12.33;8.63;;;;;;;;;;5051719;28;20241;-77
2021/12/03 06:57:23;;;;;;;14.70;8.73;;;;;;;;;;5052046;28;20219;-77
2021/12/03 06:59:50;;;;;;;11.37;8.00;;;;;;;;;;5051703;28;20312;-78
2021/12/03 07:02:17;;;;;;;15.60;9.13;;;;;;;;;;5038162;28;20667;-77
2021/12/03 07:04:44;;;;;;;13.70;8.03;;;;;;;;;;5031707;28;20239;-77
2021/12/03 07:07:12;;;;;;;12.47;8.40;;;;;;;;;;5032283;28;20683;-78
2021/12/03 07:09:39;;;;;;;8.80;6.67;;;;;;;;;;5033337;28;20234;-78
2021/12/03 07:12:07;;;;;;;14.03;8.07;;;;;;;;;;5032999;28;20212;-77
2021/12/03 07:14:35;;;;;;;14.70;7.90;;;;;;;;;;5031546;28;20342;-77
2021/12/03 07:17:05;;;;;;;16.73;10.40;;;;;;;;;;5031282;28;20215;-77
2021/12/03 07:19:35;;;;;;;18.37;9.10;;;;;;;;;;5030830;28;20247;-78
2021/12/03 07:22:03;;;;;;;16.57;8.90;;;;;;;;;;5032635;28;20212;-78
2021/12/03 07:24:30;;;;;;;15.40;8.87;;;;;;;;;;5031789;28;20726;-77
2021/12/03 07:26:57;;;;;;;13.20;9.07;;;;;;;;;;5032782;28;20615;-77
2021/12/03 07:29:24;;;;;;;8.93;6.63;;;;;;;;;;5031348;28;20245;-77
2021/12/03 07:31:52;;;;;;;6.17;4.97;;;;;;;;;;5031826;28;20270;-77
2021/12/03 07:34:19;;;;;;;14.10;7.73;;;;;;;;;;5025877;28;20232;-77
2021/12/03 07:36:46;;;;;;;13.20;7.77;;;;;;;;;;5031141;28;20206;-77
2021/12/03 07:39:13;;;;;;;8.63;6.97;;;;;;;;;;5022423;28;20231;-77
2021/12/03 07:41:41;;;;;;;13.43;8.10;;;;;;;;;;5031001;28;20203;-78
2021/12/03 07:44:08;;;;;;;8.53;6.43;;;;;;;;;;5030546;28;20630;-77
2021/12/03 07:46:36;;;;;;;10.60;7.00;;;;;;;;;;5031475;28;20211;-77
2021/12/03 07:49:04;;;;;;;13.97;7.90;;;;;;;;;;5030524;28;20233;-78
2021/12/03 07:51:31;;;;;;;5.70;5.00;;;;;;;;;;5031099;28;20214;-78
2021/12/03 07:53:59;;;;;;;12.27;7.40;;;;;;;;;;5050923;28;20217;-77
2021/12/03 07:56:26;;;;;;;9.23;6.13;;;;;;;;;;5031708;28;20231;-78
2021/12/03 07:58:53;;;;;;;8.07;6.73;;;;;;;;;;5031096;28;20218;-78
2021/12/03 08:01:20;;;;;;;13.63;8.37;;;;;;;;;;5030806;28;20251;-78
2021/12/03 08:03:47;;;;;;;12.00;7.57;;;;;;;;;;5032040;28;20211;-79
2021/12/03 08:06:15;;;;;;;11.67;7.30;;;;;;;;;;5031409;28;20246;-79
2021/12/03 08:08:42;;;;;;;10.37;6.83;;;;;;;;;;5031998;28;20235;-78
2021/12/03 08:11:09;;;;;;;13.60;8.17;;;;;;;;;;5030714;28;20236;-78
2021/12/03 08:13:37;;;;;;;15.03;8.53;;;;;;;;;;5031559;28;20211;-78
2021/12/03 08:16:04;;;;;;;8.80;6.57;;;;;;;;;;5029087;28;20237;-78
2021/12/03 08:18:31;;;;;;;8.43;7.27;;;;;;;;;;5031353;28;20238;-77
2021/12/03 08:20:59;;;;;;;10.23;7.20;;;;;;;;;;5029921;28;20238;-78
2021/12/03 08:23:28;;;;;;;12.80;7.57;;;;;;;;;;5031505;28;20216;-78
2021/12/03 08:25:55;;;;;;;12.40;8.60;;;;;;;;;;5030666;28;20241;-78
2021/12/03 08:28:22;;;;;;;12.27;7.77;;;;;;;;;;5032886;28;20239;-78
2021/12/03 08:30:49;;;;;;;10.93;7.30;;;;;;;;;;5035274;28;20243;-78
2021/12/03 08:33:16;;;;;;;12.20;8.13;;;;;;;;;;5035787;28;20216;-79
2021/12/03 08:35:43;;;;;;;10.07;6.67;;;;;;;;;;5035155;28;20244;-78
2021/12/03 08:38:10;;;;;;;14.10;8.60;;;;;;;;;;5035277;28;20234;-78
2021/12/03 08:40:39;;;;;;;8.10;6.27;;;;;;;;;;5035336;28;20712;-78
2021/12/03 08:43:06;;;;;;;6.50;5.30;;;;;;;;;;5040303;28;20204;-79
2021/12/03 08:45:34;;;;;;;9.83;8.23;;;;;;;;;;5037305;28;20247;-79
2021/12/03 08:48:02;;;;;;;11.77;6.60;;;;;;;;;;5038838;28;20233;-79
2021/12/03 08:50:33;;;;;;;7.57;6.73;;;;;;;;;;5035275;28;20728;-78
2021/12/03 08:55:46;;;;;;;8.50;6.70;;;;;;;;;;5034158;28;20246;-79
2021/12/03 08:58:16;;;;;;;8.10;6.50;;;;;;;;;;5027488;28;20715;-78
2021/12/03 09:00:44;;;;;;;14.83;7.00;;;;;;;;;;5034802;28;20238;-78
2021/12/03 09:03:12;;;;;;;11.00;5.60;;;;;;;;;;5034393;28;20205;-79
2021/12/03 09:05:40;;;;;;;6.23;5.63;;;;;;;;;;5033716;28;20241;-78
2021/12/03 09:08:07;;;;;;;10.10;5.80;;;;;;;;;;5034158;28;20233;-79
2021/12/03 09:10:34;;;;;;;9.53;6.73;;;;;;;;;;5034152;28;20246;-78
2021/12/03 09:13:04;;;;;;;9.90;6.33;;;;;;;;;;5034404;28;20687;-78
2021/12/03 09:15:36;;;;;;;6.03;5.47;;;;;;;;;;5033927;28;20233;-78
2021/12/03 09:20:52;;;;;;;6.63;5.40;;;;;;;;;;5031607;28;20349;-78
2021/12/03 09:23:25;;;;;;;11.43;8.33;;;;;;;;;;5035435;28;20210;-79
2021/12/03 09:25:53;;;;;;;13.93;7.97;;;;;;;;;;5034901;28;20351;-79
2021/12/03 09:28:26;;;;;;;6.87;4.57;;;;;;;;;;5038453;28;20669;-79
2021/12/03 09:30:53;;;;;;;7.77;6.07;;;;;;;;;;5037217;28;20262;-79
2021/12/03 09:33:23;;;;;;;14.33;7.17;;;;;;;;;;5037970;28;20215;-79
2021/12/03 09:35:55;;;;;;;12.27;7.17;;;;;;;;;;5037198;28;20241;-79
2021/12/03 09:38:22;;;;;;;15.93;9.20;;;;;;;;;;5036629;28;20736;-79
2021/12/03 09:40:49;;;;;;;6.03;4.90;;;;;;;;;;5037388;28;20748;-78
2021/12/03 09:43:17;;;;;;;11.60;8.17;;;;;;;;;;5039079;28;20828;-78
2021/12/03 09:45:54;;;;;;;13.00;7.83;;;;;;;;;;5037986;28;20246;-78
2021/12/03 09:48:31;;;;;;;14.13;9.10;;;;;;;;;;5038193;28;20233;-80
2021/12/03 09:50:58;;;;;;;7.03;6.33;;;;;;;;;;5036828;28;20321;-79
2021/12/03 09:56:07;;;;;;;8.33;6.57;;;;;;;;;;5029705;28;20254;-78
2021/12/03 09:59:02;;;;;;;8.03;6.30;;;;;;;;;;5033059;28;20785;-78
2021/12/03 10:01:36;;;;;;;6.43;5.53;;;;;;;;;;5031898;28;20783;-76
2021/12/03 10:04:19;;;;;;;9.17;7.47;;;;;;;;;;5032127;28;20218;-78
2021/12/03 10:12:23;;;;;;;6.77;5.83;;;;;;;;;;5002755;28;20833;-78
2021/12/03 10:15:03;;;;;;;9.33;6.20;;;;;;;;;;5035913;28;20233;-78
2021/12/03 10:20:34;;;;;;;9.53;6.60;;;;;;;;;;5029642;28;20265;-78
2021/12/03 10:32:11;;;;;;;5.50;4.87;;;;;;;;;;5033581;28;20717;-78
2021/12/03 10:35:33;;;;;;;8.73;6.53;;;;;;;;;;5032967;28;20229;-78
2021/12/03 10:43:55;;;;;;;7.27;6.07;;;;;;;;;;5022845;28;20218;-78
2021/12/03 10:46:32;;;;;;;8.13;6.30;;;;;;;;;;5033886;28;20371;-78
2021/12/03 10:49:09;;;;;;;9.23;6.97;;;;;;;;;;5034259;28;20238;-78
2021/12/03 10:51:48;;;;;;;10.73;6.80;;;;;;;;;;5033893;28;20210;-78
2021/12/03 10:54:30;;;;;;;11.30;6.93;;;;;;;;;;5033329;28;20245;-77
2021/12/03 10:57:17;;;;;;;6.17;4.90;;;;;;;;;;5035615;28;20202;-78
2021/12/03 11:00:23;;;;;;;9.87;6.47;;;;;;;;;;5033905;28;20285;-79
2021/12/03 11:03:56;;;;;;;10.53;7.40;;;;;;;;;;5055402;28;20305;-78
2021/12/03 11:12:30;;;;;;;7.90;6.43;;;;;;;;;;5055183;28;20233;-79
2021/12/03 12:41:01;;;;;;;11.37;7.00;;;;;;;;;;5036779;28;20383;-78
2021/12/03 13:09:34;;;;;;;4.63;4.23;;;;;;;;;;5030609;28;20294;-77
2021/12/03 13:21:01;;;;;;;6.07;5.47;;;;;;;;;;5032118;28;20247;-78
2021/12/03 14:43:07;;;;;;;5.00;4.60;;;;;;;;;;5051723;28;20198;-77
2021/12/03 14:46:07;;;;;;;5.70;4.87;;;;;;;;;;5049863;28;20242;-76
2021/12/03 14:48:54;;;;;;;8.77;4.03;;;;;;;;;;5052141;28;20241;-77
2021/12/03 14:54:26;;;;;;;6.80;4.87;;;;;;;;;;5049808;28;20221;-76
2021/12/03 14:57:28;;;;;;;7.13;4.63;;;;;;;;;;5049928;28;20203;-78
2021/12/03 15:00:22;;;;;;;6.37;4.67;;;;;;;;;;5038932;28;20619;-76
2021/12/03 15:03:22;;;;;;;7.10;5.50;;;;;;;;;;5066589;28;20225;-77
2021/12/03 15:06:05;;;;;;;4.70;3.83;;;;;;;;;;5063993;28;20226;-77
2021/12/03 15:08:41;;;;;;;8.77;5.43;;;;;;;;;;5068840;28;20226;-77
2021/12/03 15:25:46;;;;;;;6.03;4.57;;;;;;;;;;5050372;28;20303;-77
2021/12/03 15:31:00;;;;;;;3.57;3.17;;;;;;;;;;5070056;28;20245;-77
2021/12/03 15:33:47;;;;;;;7.80;4.03;;;;;;;;;;5071411;28;20216;-77
2021/12/03 15:36:17;;;;;;;4.40;4.00;;;;;;;;;;5068095;28;20233;-76
2021/12/03 15:39:05;;;;;;;4.50;3.90;;;;;;;;;;5069962;28;20231;-75
2021/12/03 15:55:51;;;;;;;4.50;4.10;;;;;;;;;;5048357;28;20302;-76
2021/12/03 16:04:02;;;;;;;5.20;4.00;;;;;;;;;;5041469;28;20210;-76
2021/12/03 16:06:45;;;;;;;12.77;5.20;;;;;;;;;;5048146;28;20228;-78
2021/12/03 16:09:21;;;;;;;6.13;5.27;;;;;;;;;;5046062;28;20237;-78
2021/12/03 16:11:55;;;;;;;5.30;4.53;;;;;;;;;;5037706;28;20222;-78
2021/12/03 16:22:55;;;;;;;5.63;4.77;;;;;;;;;;5031159;28;20202;-78
2021/12/03 16:53:06;;;;;;;6.87;5.43;;;;;;;;;;5060466;28;20739;-78
2021/12/03 16:55:34;;;;;;;8.83;6.27;;;;;;;;;;5067408;28;20237;-77
2021/12/03 16:58:01;;;;;;;15.10;7.20;;;;;;;;;;5067943;28;20635;-77
2021/12/03 17:00:34;;;;;;;6.37;5.60;;;;;;;;;;5050256;28;20237;-77
2021/12/03 17:03:05;;;;;;;12.00;6.50;;;;;;;;;;5047481;28;20221;-77
2021/12/03 17:11:29;;;;;;;10.80;6.43;;;;;;;;;;5066184;28;20259;-78
2021/12/03 17:14:03;;;;;;;4.60;4.20;;;;;;;;;;5066993;28;20216;-77
2021/12/03 17:31:36;;;;;;;7.40;5.50;;;;;;;;;;5100733;28;20320;-83
2021/12/03 17:48:40;;;;;;;6.07;4.50;;;;;;;;;;5100957;28;20212;-81
2021/12/03 17:51:34;;;;;;;4.43;4.03;;;;;;;;;;5101833;28;20237;-82
2021/12/03 17:54:23;;;;;;;4.30;3.90;;;;;;;;;;5096674;28;20193;-82
2021/12/03 17:56:50;;;;;;;5.63;4.77;;;;;;;;;;5100597;28;20233;-81
2021/12/03 17:59:21;;;;;;;5.80;4.53;;;;;;;;;;5100506;28;20747;-81
2021/12/03 18:01:52;;;;;;;5.30;4.23;;;;;;;;;;5101418;28;20197;-81
2021/12/03 18:04:38;;;;;;;5.17;4.53;;;;;;;;;;5100292;28;20722;-82
2021/12/03 18:07:24;;;;;;;4.80;4.23;;;;;;;;;;5100207;28;20308;-82
2021/12/03 18:10:10;;;;;;;6.50;4.70;;;;;;;;;;5101678;28;20262;-82
2021/12/03 18:15:51;;;;;;;4.80;4.40;;;;;;;;;;5101673;28;20239;-82
2021/12/03 18:43:44;;;;;;;5.40;3.87;;;;;;;;;;5069825;28;20216;-83
2021/12/03 18:46:39;;;;;;;7.70;4.67;;;;;;;;;;5068796;28;20878;-82
2021/12/03 18:52:08;;;;;;;5.50;4.90;;;;;;;;;;5068616;28;20776;-83
2021/12/03 18:54:52;;;;;;;4.77;4.07;;;;;;;;;;5069680;28;20229;-83
2021/12/03 18:57:21;;;;;;;6.47;4.17;;;;;;;;;;5070039;28;20213;-82
2021/12/03 18:59:54;;;;;;;9.67;4.90;;;;;;;;;;5068512;28;20230;-84
2021/12/03 19:02:23;;;;;;;4.57;4.20;;;;;;;;;;5083858;28;20227;-82
2021/12/03 19:04:56;;;;;;;6.60;4.47;;;;;;;;;;5087623;28;20241;-82
2021/12/03 19:07:26;;;;;;;6.73;4.90;;;;;;;;;;5088832;28;20209;-82
2021/12/03 19:09:56;;;;;;;5.00;3.87;;;;;;;;;;5087969;28;20229;-83
2021/12/03 19:12:25;;;;;;;5.97;5.10;;;;;;;;;;5089626;28;20238;-83
2021/12/03 19:14:55;;;;;;;6.80;4.47;;;;;;;;;;5089933;28;20239;-83
2021/12/03 19:17:23;;;;;;;4.73;4.17;;;;;;;;;;5089600;28;20201;-84
2021/12/03 19:19:55;;;;;;;5.57;4.43;;;;;;;;;;5089841;28;20233;-84
2021/12/03 19:22:22;;;;;;;8.63;4.93;;;;;;;;;;5089694;28;20210;-84
2021/12/03 19:24:49;;;;;;;4.30;3.80;;;;;;;;;;5088985;28;20229;-83
2021/12/03 19:27:18;;;;;;;6.10;3.97;;;;;;;;;;5087876;28;20205;-82
2021/12/03 19:29:45;;;;;;;6.63;3.60;;;;;;;;;;5088508;28;20292;-82
2021/12/03 19:32:13;;;;;;;5.10;4.33;;;;;;;;;;5089639;28;20211;-82
2021/12/03 19:34:40;;;;;;;5.93;4.03;;;;;;;;;;5077949;28;20232;-82
2021/12/03 19:37:08;;;;;;;5.33;3.83;;;;;;;;;;5070363;28;20213;-82
2021/12/03 19:39:37;;;;;;;7.70;4.63;;;;;;;;;;5068325;28;20238;-83
2021/12/03 19:42:08;;;;;;;5.77;3.97;;;;;;;;;;5069999;28;20229;-81
2021/12/03 19:44:43;;;;;;;4.17;3.77;;;;;;;;;;5068038;28;20242;-83
2021/12/03 19:47:11;;;;;;;4.10;3.60;;;;;;;;;;5066954;28;20209;-83
2021/12/03 19:49:47;;;;;;;5.07;4.57;;;;;;;;;;5066963;28;20237;-83
2021/12/03 19:52:24;;;;;;;5.70;4.17;;;;;;;;;;5070340;28;20212;-83
2021/12/03 19:54:51;;;;;;;5.80;4.27;;;;;;;;;;5069448;28;20239;-83
2021/12/03 19:57:18;;;;;;;5.33;4.63;;;;;;;;;;5068708;28;20210;-83
2021/12/03 19:59:45;;;;;;;6.43;4.10;;;;;;;;;;5067480;28;20264;-83
2021/12/03 20:02:13;;;;;;;4.23;3.57;;;;;;;;;;5066688;28;20240;-82
2021/12/03 20:04:40;;;;;;;4.80;4.40;;;;;;;;;;5065242;28;20240;-83
2021/12/03 20:07:07;;;;;;;4.60;4.17;;;;;;;;;;5067788;28;20206;-83
2021/12/03 20:09:41;;;;;;;5.47;4.10;;;;;;;;;;5068680;28;20656;-83
2021/12/03 20:12:12;;;;;;;6.13;4.77;;;;;;;;;;5068422;28;20279;-82
2021/12/03 20:14:41;;;;;;;3.70;3.20;;;;;;;;;;5067287;28;20266;-83
2021/12/03 20:17:13;;;;;;;4.23;3.93;;;;;;;;;;5070859;28;20236;-82
2021/12/03 20:19:41;;;;;;;6.67;4.07;;;;;;;;;;5084675;28;20255;-84
2021/12/03 20:22:12;;;;;;;6.17;4.07;;;;;;;;;;5087123;28;20216;-84
2021/12/03 20:25:10;;;;;;;9.33;4.90;;;;;;;;;;5086808;28;20241;-81
2021/12/03 20:27:43;;;;;;;8.00;5.20;;;;;;;;;;5086820;28;20257;-83
2021/12/03 20:30:15;;;;;;;4.83;3.57;;;;;;;;;;5088114;28;20859;-82
2021/12/03 20:32:49;;;;;;;3.63;3.20;;;;;;;;;;5088473;28;20216;-83
2021/12/03 20:37:57;;;;;;;5.53;5.03;;;;;;;;;;5083975;28;20193;-82
2021/12/03 20:40:28;;;;;;;6.20;4.87;;;;;;;;;;5088021;28;20233;-83
2021/12/03 20:43:06;;;;;;;4.70;4.30;;;;;;;;;;5088583;28;20205;-83
2021/12/03 20:48:24;;;;;;;4.83;4.40;;;;;;;;;;5088193;28;20203;-83
2021/12/03 20:53:43;;;;;;;6.47;4.40;;;;;;;;;;5080052;28;20231;-82
2021/12/03 21:09:56;;;;;;;6.33;4.80;;;;;;;;;;5086279;28;20754;-83
2021/12/03 21:12:28;;;;;;;5.27;3.93;;;;;;;;;;5087580;28;20213;-82
2021/12/03 21:15:03;;;;;;;7.53;3.97;;;;;;;;;;5085939;28;20251;-84
2021/12/03 21:18:02;;;;;;;4.23;3.57;;;;;;;;;;5085898;28;20208;-83
2021/12/03 21:20:30;;;;;;;4.43;3.13;;;;;;;;;;5083692;28;20244;-83
2021/12/03 21:23:00;;;;;;;4.13;3.83;;;;;;;;;;5083877;28;20201;-84
2021/12/03 21:25:32;;;;;;;5.80;4.10;;;;;;;;;;5082197;28;20234;-83
2021/12/03 21:28:05;;;;;;;6.70;4.57;;;;;;;;;;5087680;28;20215;-83
2021/12/03 21:30:40;;;;;;;3.70;3.10;;;;;;;;;;5086802;28;20256;-83
2021/12/03 21:33:32;;;;;;;4.57;3.80;;;;;;;;;;5083982;28;20205;-83
2021/12/03 21:39:03;;;;;;;7.90;4.70;;;;;;;;;;5083769;28;20216;-82
2021/12/03 21:41:31;;;;;;;6.10;4.23;;;;;;;;;;5060237;28;20305;-84
2021/12/03 21:44:01;;;;;;;3.60;3.30;;;;;;;;;;5052637;28;20273;-82